Time;durP1;ratioP1;P1;durP2;ratioP2;P2;SDS_P1;SDS_P2;PMS_P1;PMS_P2;Temp;Humidity;BMP_temperature;BMP_pressure;BME280_temperature;BME280_humidity;BME280_pressure;Samples;Min_cycle;Max_cycle;Signal;HPM_P1;HPM_P2
2023/10/26 00:00:45;;;;;;;25.63;22.90;;;12.00;99.90;;;;;;5070595;28;20293;-70
2023/10/26 00:03:11;;;;;;;30.33;24.58;;;12.00;99.90;;;;;;5063412;28;20238;-72
2023/10/26 00:05:38;;;;;;;28.13;23.20;;;12.00;99.90;;;;;;5068128;28;20203;-71
2023/10/26 00:08:05;;;;;;;31.92;25.80;;;12.00;99.90;;;;;;5062542;28;20306;-72
2023/10/26 00:10:32;;;;;;;28.88;25.17;;;11.90;99.90;;;;;;5069727;28;20293;-70
2023/10/26 00:13:00;;;;;;;26.38;23.25;;;11.90;99.90;;;;;;5065004;28;20229;-74
2023/10/26 00:15:27;;;;;;;29.60;26.50;;;12.00;99.90;;;;;;5068638;28;20297;-71
2023/10/26 00:17:54;;;;;;;33.13;27.45;;;12.00;99.90;;;;;;5072334;28;20309;-72
2023/10/26 00:20:22;;;;;;;25.33;21.95;;;12.00;99.90;;;;;;5068940;28;20213;-71
2023/10/26 00:22:49;;;;;;;34.08;27.95;;;12.00;99.90;;;;;;5070650;28;20315;-71
2023/10/26 00:25:16;;;;;;;29.08;26.02;;;12.00;99.90;;;;;;5065301;28;20214;-73
2023/10/26 00:27:43;;;;;;;28.17;25.35;;;11.90;99.90;;;;;;5064048;28;20231;-72
2023/10/26 00:30:12;;;;;;;34.20;26.30;;;11.90;99.90;;;;;;5068838;28;20217;-71
2023/10/26 00:32:40;;;;;;;23.92;21.52;;;11.90;99.90;;;;;;5066405;28;20302;-73
2023/10/26 00:35:07;;;;;;;29.63;26.65;;;11.90;99.90;;;;;;5069376;28;20206;-70
2023/10/26 00:37:34;;;;;;;30.52;27.42;;;11.80;99.90;;;;;;5069526;28;20350;-70
2023/10/26 00:40:01;;;;;;;34.50;26.60;;;11.80;99.90;;;;;;5077721;28;20202;-71
2023/10/26 00:42:28;;;;;;;27.52;23.80;;;11.80;99.90;;;;;;5072912;28;20195;-68
2023/10/26 00:44:56;;;;;;;30.38;26.70;;;11.80;99.90;;;;;;5066229;28;20285;-69
2023/10/26 00:47:27;;;;;;;29.23;26.10;;;11.80;99.90;;;;;;5067646;28;20700;-71
2023/10/26 00:49:54;;;;;;;30.15;26.90;;;11.80;99.90;;;;;;5071758;28;20205;-72
2023/10/26 00:52:22;;;;;;;32.72;27.60;;;11.80;99.90;;;;;;5070350;28;20296;-72
2023/10/26 00:54:51;;;;;;;31.13;24.50;;;11.70;99.90;;;;;;5062159;28;20659;-71
2023/10/26 00:57:20;;;;;;;27.30;24.40;;;11.70;99.90;;;;;;5067200;28;20313;-73
2023/10/26 00:59:49;;;;;;;29.38;26.20;;;11.70;99.90;;;;;;5065695;28;20205;-71
2023/10/26 01:02:17;;;;;;;29.08;25.58;;;11.70;99.90;;;;;;5073080;28;20290;-73
2023/10/26 01:04:45;;;;;;;29.77;26.67;;;11.70;99.90;;;;;;5070172;28;20209;-73
2023/10/26 01:07:12;;;;;;;30.15;26.95;;;11.70;99.90;;;;;;5072305;28;20308;-71
2023/10/26 01:09:39;;;;;;;28.63;25.63;;;11.70;99.90;;;;;;5072165;28;20210;-71
2023/10/26 01:12:07;;;;;;;25.15;22.45;;;11.70;99.90;;;;;;5073187;28;20208;-71
2023/10/26 01:14:33;;;;;;;29.55;26.50;;;11.70;99.90;;;;;;5064855;28;20226;-71
2023/10/26 01:17:02;;;;;;;32.83;28.13;;;11.60;99.90;;;;;;5068990;28;20306;-73
2023/10/26 01:19:42;;;;;;;27.85;24.88;;;11.60;99.90;;;;;;5063602;28;20210;-71
2023/10/26 01:22:11;;;;;;;30.30;27.00;;;11.60;99.90;;;;;;5063544;28;20213;-71
2023/10/26 01:24:38;;;;;;;27.30;23.98;;;11.60;99.90;;;;;;5071010;28;20293;-73
2023/10/26 01:27:05;;;;;;;31.90;26.23;;;11.70;99.90;;;;;;5063088;28;20312;-71
2023/10/26 01:29:33;;;;;;;30.33;26.98;;;11.60;99.90;;;;;;5070235;28;20207;-72
2023/10/26 01:32:00;;;;;;;29.25;25.92;;;11.70;99.90;;;;;;5063940;28;20252;-71
2023/10/26 01:34:27;;;;;;;28.73;25.60;;;11.70;99.90;;;;;;5068578;28;20229;-72
2023/10/26 01:36:54;;;;;;;30.90;25.88;;;11.70;99.90;;;;;;5067033;28;20276;-71
2023/10/26 01:39:22;;;;;;;33.10;26.80;;;11.70;99.90;;;;;;5066725;28;20199;-72
2023/10/26 01:41:49;;;;;;;27.92;24.88;;;11.60;99.90;;;;;;5067552;28;20227;-73
2023/10/26 01:44:16;;;;;;;29.92;24.88;;;11.60;99.90;;;;;;5067151;28;20210;-73
2023/10/26 01:46:43;;;;;;;30.00;23.52;;;11.60;99.90;;;;;;5069895;28;20695;-72
2023/10/26 01:49:10;;;;;;;32.50;26.73;;;11.70;99.90;;;;;;5062658;28;20278;-72
2023/10/26 01:51:37;;;;;;;24.38;21.50;;;11.60;99.90;;;;;;5059032;28;20309;-73
2023/10/26 01:54:04;;;;;;;29.75;23.85;;;11.70;99.90;;;;;;5064460;28;20214;-71
2023/10/26 01:56:33;;;;;;;31.98;26.48;;;11.60;99.90;;;;;;5067517;28;20237;-71
2023/10/26 01:58:59;;;;;;;29.50;25.35;;;11.60;99.90;;;;;;5067442;28;20289;-70
2023/10/26 02:01:26;;;;;;;28.10;24.80;;;11.70;99.90;;;;;;5072550;28;20263;-70
2023/10/26 02:03:53;;;;;;;33.90;27.45;;;11.70;99.90;;;;;;5070822;28;20194;-71
2023/10/26 02:06:20;;;;;;;29.60;22.20;;;11.70;99.90;;;;;;5065179;28;20564;-71
2023/10/26 02:08:47;;;;;;;33.13;26.23;;;11.70;99.90;;;;;;5073284;28;20605;-70
2023/10/26 02:11:14;;;;;;;23.50;19.90;;;11.70;99.90;;;;;;5063922;28;20293;-70
2023/10/26 02:13:42;;;;;;;28.23;24.15;;;11.70;99.90;;;;;;5062026;28;20230;-71
2023/10/26 02:16:09;;;;;;;29.60;23.55;;;11.70;99.90;;;;;;5069127;28;20304;-69
2023/10/26 02:18:36;;;;;;;26.98;23.92;;;11.70;99.90;;;;;;5064597;28;20691;-72
2023/10/26 02:21:05;;;;;;;29.85;25.70;;;11.60;99.90;;;;;;5069676;28;20288;-73
2023/10/26 02:23:32;;;;;;;31.80;26.08;;;11.60;99.90;;;;;;5065500;28;20285;-72
2023/10/26 02:26:01;;;;;;;28.10;24.08;;;11.60;99.90;;;;;;5056537;28;20288;-72
2023/10/26 02:28:28;;;;;;;30.92;25.25;;;11.70;99.90;;;;;;5067175;28;20569;-71
2023/10/26 02:30:56;;;;;;;34.45;23.98;;;11.60;99.90;;;;;;5063454;28;20229;-71
2023/10/26 02:33:23;;;;;;;25.75;22.00;;;11.60;99.90;;;;;;5065014;28;20305;-71
2023/10/26 02:35:50;;;;;;;26.05;22.85;;;11.60;99.90;;;;;;5063453;28;20290;-70
2023/10/26 02:38:17;;;;;;;27.48;22.83;;;11.70;99.90;;;;;;5064245;28;20230;-72
2023/10/26 02:40:44;;;;;;;32.40;28.13;;;11.60;99.90;;;;;;5070179;28;20636;-71
2023/10/26 02:43:11;;;;;;;31.73;27.13;;;11.60;99.90;;;;;;5072282;28;20725;-72
2023/10/26 02:45:38;;;;;;;31.80;26.50;;;11.70;99.90;;;;;;5072276;28;20259;-72
2023/10/26 02:48:06;;;;;;;33.10;26.48;;;11.60;99.90;;;;;;5056930;28;20320;-70
2023/10/26 02:50:36;;;;;;;32.38;27.05;;;11.60;99.90;;;;;;5067146;28;20579;-71
2023/10/26 02:53:02;;;;;;;30.08;26.10;;;11.60;99.90;;;;;;5061087;28;20206;-73
2023/10/26 02:55:30;;;;;;;33.00;26.92;;;11.60;99.90;;;;;;5060309;28;20733;-69
2023/10/26 02:57:57;;;;;;;33.60;27.20;;;11.60;99.90;;;;;;5072181;28;20228;-72
2023/10/26 03:00:24;;;;;;;30.10;26.42;;;11.60;99.90;;;;;;5063320;28;20212;-73
2023/10/26 03:02:51;;;;;;;30.45;23.60;;;11.60;99.90;;;;;;5066693;28;20208;-70
2023/10/26 03:05:19;;;;;;;38.03;28.90;;;11.60;99.90;;;;;;5065110;28;20329;-73
2023/10/26 03:07:47;;;;;;;33.50;28.08;;;11.60;99.90;;;;;;5067238;28;20311;-71
2023/10/26 03:10:14;;;;;;;30.60;24.42;;;11.60;99.90;;;;;;5066699;28;20215;-72
2023/10/26 03:12:41;;;;;;;30.30;25.15;;;11.60;99.90;;;;;;5062358;28;20202;-73
2023/10/26 03:15:09;;;;;;;29.67;24.55;;;11.60;99.90;;;;;;5068231;28;20246;-73
2023/10/26 03:17:36;;;;;;;28.35;24.67;;;11.60;99.90;;;;;;5070723;28;20766;-72
2023/10/26 03:20:05;;;;;;;30.65;24.48;;;11.50;99.90;;;;;;5074219;28;20212;-73
2023/10/26 03:22:33;;;;;;;35.55;28.30;;;11.50;99.90;;;;;;5069819;28;20202;-70
2023/10/26 03:25:00;;;;;;;37.40;26.95;;;11.50;99.90;;;;;;5069390;28;20207;-72
2023/10/26 03:27:27;;;;;;;27.67;22.65;;;11.50;99.90;;;;;;5078626;28;20297;-71
2023/10/26 03:29:55;;;;;;;28.13;23.65;;;11.50;99.90;;;;;;5073633;28;20249;-70
2023/10/26 03:32:22;;;;;;;25.67;22.80;;;11.50;99.90;;;;;;5064935;28;20629;-72
2023/10/26 03:34:49;;;;;;;27.98;24.17;;;11.60;99.90;;;;;;5059289;28;20316;-73
2023/10/26 03:37:16;;;;;;;29.45;22.95;;;11.50;99.90;;;;;;5059771;28;20224;-72
2023/10/26 03:39:44;;;;;;;36.30;29.13;;;11.50;99.90;;;;;;5064563;28;20240;-72
2023/10/26 03:42:11;;;;;;;31.40;25.35;;;11.40;99.90;;;;;;5059114;28;20208;-71
2023/10/26 03:44:38;;;;;;;31.25;26.02;;;11.40;99.90;;;;;;5068304;28;20660;-72
2023/10/26 03:47:05;;;;;;;30.85;24.85;;;11.40;99.90;;;;;;5064550;28;20590;-72
2023/10/26 03:49:32;;;;;;;32.13;24.45;;;11.40;99.90;;;;;;5068501;28;20289;-70
2023/10/26 03:51:59;;;;;;;34.28;27.30;;;11.30;99.90;;;;;;5061040;28;20202;-71
2023/10/26 03:54:27;;;;;;;32.58;26.02;;;11.30;99.90;;;;;;5064113;28;20732;-72
2023/10/26 03:56:55;;;;;;;33.15;23.77;;;11.40;99.90;;;;;;5068148;28;20728;-72
2023/10/26 03:59:22;;;;;;;34.50;26.73;;;11.40;99.90;;;;;;5066108;28;20205;-71
2023/10/26 04:01:49;;;;;;;27.85;22.95;;;11.30;99.90;;;;;;5072099;28;20285;-71
2023/10/26 04:04:16;;;;;;;34.67;27.25;;;11.30;99.90;;;;;;5062425;28;20213;-69
2023/10/26 04:06:42;;;;;;;32.60;26.00;;;11.30;99.90;;;;;;5071522;28;20239;-72
2023/10/26 04:09:10;;;;;;;31.75;23.27;;;11.30;99.90;;;;;;5064854;28;20296;-72
2023/10/26 04:11:37;;;;;;;34.45;26.70;;;11.30;99.90;;;;;;5070170;28;20291;-70
2023/10/26 04:14:05;;;;;;;31.95;23.83;;;11.30;99.90;;;;;;5067099;28;20213;-70
2023/10/26 04:16:32;;;;;;;38.70;28.17;;;11.30;99.90;;;;;;5064887;28;20285;-70
2023/10/26 04:18:59;;;;;;;29.90;23.20;;;11.30;99.90;;;;;;5072078;28;20577;-72
2023/10/26 04:21:26;;;;;;;33.00;24.85;;;11.30;99.90;;;;;;5062721;28;20205;-72
2023/10/26 04:23:53;;;;;;;34.10;24.52;;;11.30;99.90;;;;;;5065211;28;20202;-73
2023/10/26 04:26:20;;;;;;;39.83;26.92;;;11.30;99.90;;;;;;5066179;28;20205;-72
2023/10/26 04:28:47;;;;;;;30.80;24.63;;;11.30;99.90;;;;;;5066337;28;20675;-70
2023/10/26 04:31:15;;;;;;;32.17;25.65;;;11.30;99.90;;;;;;5069627;28;20215;-72
2023/10/26 04:33:42;;;;;;;38.13;25.85;;;11.30;99.90;;;;;;5064599;28;20209;-72
2023/10/26 04:36:09;;;;;;;34.08;25.00;;;11.30;99.90;;;;;;5064790;28;20618;-70
2023/10/26 04:38:36;;;;;;;32.40;23.80;;;11.30;99.90;;;;;;5066324;28;20305;-71
2023/10/26 04:41:03;;;;;;;27.90;22.88;;;11.30;99.90;;;;;;5058285;28;20672;-71
2023/10/26 04:43:30;;;;;;;36.10;27.48;;;11.30;99.90;;;;;;5059729;28;20209;-71
2023/10/26 04:45:56;;;;;;;27.52;22.60;;;11.30;99.90;;;;;;5066285;28;20699;-70
2023/10/26 04:48:25;;;;;;;32.85;23.25;;;11.30;99.90;;;;;;5071700;28;20232;-71
2023/10/26 04:50:52;;;;;;;32.13;27.02;;;11.40;99.90;;;;;;5065775;28;20288;-72
2023/10/26 04:53:18;;;;;;;32.25;27.42;;;11.30;99.90;;;;;;5074136;28;20212;-71
2023/10/26 04:55:45;;;;;;;35.30;26.17;;;11.30;99.90;;;;;;5065624;28;20218;-72
2023/10/26 04:58:13;;;;;;;33.97;25.90;;;11.20;99.90;;;;;;5067196;28;20545;-71
2023/10/26 05:00:40;;;;;;;35.67;26.63;;;11.30;99.90;;;;;;5066652;28;20214;-71
2023/10/26 05:03:07;;;;;;;31.90;24.17;;;11.30;99.90;;;;;;5066619;28;20211;-72
2023/10/26 05:05:35;;;;;;;38.03;27.02;;;11.20;99.90;;;;;;5060814;28;20294;-69
2023/10/26 05:08:03;;;;;;;35.88;26.30;;;11.30;99.90;;;;;;5062160;28;20585;-71
2023/10/26 05:10:31;;;;;;;34.20;25.35;;;11.20;99.90;;;;;;5069043;28;20209;-70
2023/10/26 05:12:57;;;;;;;31.35;24.85;;;11.30;99.90;;;;;;5067509;28;20209;-69
2023/10/26 05:15:25;;;;;;;32.25;26.13;;;11.30;99.90;;;;;;5068253;28;20260;-70
2023/10/26 05:17:52;;;;;;;31.95;25.45;;;11.30;99.90;;;;;;5064045;28;20567;-72
2023/10/26 05:20:19;;;;;;;25.92;23.00;;;11.30;99.90;;;;;;5063873;28;20658;-69
2023/10/26 05:22:47;;;;;;;32.78;25.08;;;11.30;99.90;;;;;;5066077;28;20233;-71
2023/10/26 05:25:14;;;;;;;34.00;27.02;;;11.30;99.90;;;;;;5071922;28;20291;-71
2023/10/26 05:27:41;;;;;;;31.02;25.63;;;11.30;99.90;;;;;;5069818;28;20308;-70
2023/10/26 05:30:09;;;;;;;32.53;26.70;;;11.30;99.90;;;;;;5065478;28;20289;-71
2023/10/26 05:32:35;;;;;;;34.75;26.27;;;11.20;99.90;;;;;;5064429;28;20281;-70
2023/10/26 05:35:03;;;;;;;37.30;25.95;;;11.20;99.90;;;;;;5059337;28;20324;-70
2023/10/26 05:37:30;;;;;;;36.97;27.13;;;11.20;99.90;;;;;;5055776;28;20242;-71
2023/10/26 05:39:59;;;;;;;34.97;25.17;;;11.20;99.90;;;;;;5063500;28;20828;-69
2023/10/26 05:42:25;;;;;;;33.42;26.70;;;11.30;99.90;;;;;;5069607;28;20635;-71
2023/10/26 05:44:55;;;;;;;45.53;25.50;;;11.20;99.90;;;;;;5062747;28;20624;-72
2023/10/26 05:47:22;;;;;;;40.50;26.02;;;11.20;99.90;;;;;;5069816;28;20657;-71
2023/10/26 05:49:49;;;;;;;30.92;23.27;;;11.20;99.90;;;;;;5064160;28;20202;-76
2023/10/26 05:52:16;;;;;;;36.58;26.40;;;11.20;99.90;;;;;;5070814;28;20566;-71
2023/10/26 05:54:43;;;;;;;39.20;27.33;;;11.20;99.90;;;;;;5070804;28;20318;-71
2023/10/26 05:57:11;;;;;;;37.75;26.38;;;11.20;99.90;;;;;;5064092;28;20226;-72
2023/10/26 05:59:39;;;;;;;38.47;25.35;;;11.20;99.90;;;;;;5058001;28;20209;-70
2023/10/26 06:02:06;;;;;;;34.28;25.50;;;11.20;99.90;;;;;;5064806;28;20329;-73
2023/10/26 06:04:33;;;;;;;35.97;27.30;;;11.20;99.90;;;;;;5069845;28;20686;-73
2023/10/26 06:07:01;;;;;;;31.70;26.00;;;11.20;99.90;;;;;;5060818;28;20221;-72
2023/10/26 06:09:28;;;;;;;36.75;27.90;;;11.20;99.90;;;;;;5066672;28;20201;-71
2023/10/26 06:11:55;;;;;;;30.25;24.75;;;11.20;99.90;;;;;;5063671;28;20233;-72
2023/10/26 06:14:23;;;;;;;35.85;26.33;;;11.10;99.90;;;;;;5065082;28;20669;-70
2023/10/26 06:16:50;;;;;;;35.63;24.05;;;11.20;99.90;;;;;;5068633;28;20312;-72
2023/10/26 06:19:17;;;;;;;35.35;24.58;;;11.20;99.90;;;;;;5068814;28;20295;-73
2023/10/26 06:21:44;;;;;;;33.65;25.67;;;11.20;99.90;;;;;;5064074;28;20205;-73
2023/10/26 06:24:11;;;;;;;37.10;27.08;;;11.20;99.90;;;;;;5060781;28;20215;-74
2023/10/26 06:26:37;;;;;;;31.92;23.52;;;11.20;99.90;;;;;;5062395;28;20309;-72
2023/10/26 06:29:04;;;;;;;41.25;26.80;;;11.20;99.90;;;;;;5052838;28;20198;-71
2023/10/26 06:31:32;;;;;;;31.95;24.98;;;11.20;99.90;;;;;;5062904;28;20214;-71
2023/10/26 06:33:59;;;;;;;34.35;24.63;;;11.20;99.90;;;;;;5061174;28;20594;-72
2023/10/26 06:36:26;;;;;;;33.80;23.88;;;11.20;99.90;;;;;;5065379;28;20531;-70
2023/10/26 06:38:54;;;;;;;31.83;22.70;;;11.20;99.90;;;;;;5063597;28;20205;-71
2023/10/26 06:41:21;;;;;;;34.67;24.30;;;11.20;99.90;;;;;;5062811;28;20205;-71
2023/10/26 06:43:48;;;;;;;34.78;24.52;;;11.20;99.90;;;;;;5067832;28;20202;-74
2023/10/26 06:46:15;;;;;;;36.00;24.80;;;11.30;99.90;;;;;;5070127;28;20284;-72
2023/10/26 06:48:44;;;;;;;39.38;25.35;;;11.30;99.90;;;;;;5070622;28;20209;-75
2023/10/26 06:51:10;;;;;;;26.20;20.55;;;11.30;99.90;;;;;;5064416;28;20756;-72
2023/10/26 06:53:37;;;;;;;26.80;21.98;;;11.30;99.90;;;;;;5061328;28;20549;-71
2023/10/26 06:56:11;;;;;;;25.98;21.50;;;11.40;99.90;;;;;;5066760;28;20715;-74
2023/10/26 06:58:39;;;;;;;30.83;24.13;;;11.40;99.90;;;;;;5070549;28;20303;-75
2023/10/26 07:01:07;;;;;;;24.85;20.60;;;11.40;99.90;;;;;;5058876;28;20220;-74
2023/10/26 07:03:34;;;;;;;31.50;23.10;;;11.40;99.90;;;;;;5066225;28;20327;-74
2023/10/26 07:06:03;;;;;;;27.90;21.77;;;11.40;99.90;;;;;;5067048;28;20227;-73
2023/10/26 07:08:32;;;;;;;28.80;21.77;;;11.50;99.90;;;;;;5066705;28;20313;-72
2023/10/26 07:10:59;;;;;;;33.90;23.63;;;11.50;99.90;;;;;;5066871;28;20228;-72
2023/10/26 07:13:26;;;;;;;28.00;21.02;;;11.60;99.90;;;;;;5066843;28;20720;-73
2023/10/26 07:15:53;;;;;;;31.25;23.80;;;11.60;99.90;;;;;;5065121;28;20233;-73
2023/10/26 07:18:20;;;;;;;24.02;19.55;;;11.70;99.90;;;;;;5064157;28;20294;-72
2023/10/26 07:20:49;;;;;;;29.88;22.15;;;11.70;99.90;;;;;;5058450;28;20628;-73
2023/10/26 07:23:18;;;;;;;25.85;20.20;;;11.70;99.90;;;;;;5064516;28;20205;-71
2023/10/26 07:25:45;;;;;;;28.55;22.67;;;11.70;99.90;;;;;;5060496;28;20638;-73
2023/10/26 07:28:13;;;;;;;23.65;18.90;;;11.80;99.90;;;;;;5067585;28;20308;-72
2023/10/26 07:30:40;;;;;;;31.05;22.60;;;11.80;99.90;;;;;;5058601;28;20279;-72
2023/10/26 07:33:07;;;;;;;25.92;22.40;;;11.80;99.90;;;;;;5057094;28;20207;-72
2023/10/26 07:35:40;;;;;;;27.48;19.92;;;11.80;99.90;;;;;;5064371;28;20249;-73
2023/10/26 07:38:07;;;;;;;28.20;22.00;;;11.80;99.90;;;;;;5060098;28;20234;-71
2023/10/26 07:40:37;;;;;;;31.33;21.85;;;11.90;99.90;;;;;;5066285;28;20281;-73
2023/10/26 07:43:05;;;;;;;28.95;21.75;;;11.90;99.90;;;;;;5071325;28;20206;-72
2023/10/26 07:45:31;;;;;;;31.50;23.10;;;11.90;99.90;;;;;;5057749;28;20289;-70
2023/10/26 07:47:58;;;;;;;27.02;20.90;;;11.90;99.90;;;;;;5076047;28;20273;-72
2023/10/26 07:50:25;;;;;;;31.15;21.10;;;11.90;99.90;;;;;;5066983;28;20208;-71
2023/10/26 07:52:52;;;;;;;29.40;24.00;;;11.90;99.90;;;;;;5069552;28;20211;-72
2023/10/26 07:55:19;;;;;;;28.75;21.48;;;12.00;99.90;;;;;;5064714;28;20313;-72
2023/10/26 07:57:48;;;;;;;28.05;22.00;;;12.00;99.90;;;;;;5072109;28;20659;-70
2023/10/26 08:00:16;;;;;;;29.05;22.40;;;12.00;99.90;;;;;;5068406;28;20215;-72
2023/10/26 08:02:43;;;;;;;32.72;24.73;;;12.00;99.90;;;;;;5074281;28;20290;-73
2023/10/26 08:05:12;;;;;;;31.58;22.63;;;12.10;99.90;;;;;;5068323;28;20229;-72
2023/10/26 08:07:39;;;;;;;32.33;24.73;;;12.10;99.90;;;;;;5071039;28;20230;-71
2023/10/26 08:10:07;;;;;;;28.63;23.40;;;12.20;99.90;;;;;;5055686;28;20202;-73
2023/10/26 08:12:34;;;;;;;27.45;21.85;;;12.20;99.90;;;;;;5063757;28;20199;-71
2023/10/26 08:15:04;;;;;;;28.08;22.92;;;12.20;99.90;;;;;;5070982;28;20220;-73
2023/10/26 08:17:34;;;;;;;24.08;20.63;;;12.30;99.90;;;;;;5059951;28;20301;-73
2023/10/26 08:20:04;;;;;;;28.63;21.88;;;12.40;99.90;;;;;;5068137;28;20218;-71
2023/10/26 08:22:31;;;;;;;30.60;21.40;;;12.40;99.90;;;;;;5063489;28;20592;-72
2023/10/26 08:24:59;;;;;;;27.05;21.35;;;12.40;99.90;;;;;;5072624;28;20328;-72
2023/10/26 08:27:26;;;;;;;32.47;25.83;;;12.40;99.90;;;;;;5063520;28;20740;-72
2023/10/26 08:29:53;;;;;;;27.50;23.20;;;12.50;99.90;;;;;;5070551;28;20199;-73
2023/10/26 08:32:22;;;;;;;33.75;26.15;;;12.50;99.90;;;;;;5067288;28;20214;-72
2023/10/26 08:34:49;;;;;;;35.30;23.00;;;12.50;99.90;;;;;;5064855;28;20674;-73
2023/10/26 08:37:17;;;;;;;27.60;22.35;;;12.50;99.90;;;;;;5072903;28;20228;-73
2023/10/26 08:39:45;;;;;;;32.38;23.90;;;12.60;99.90;;;;;;5064409;28;20214;-72
2023/10/26 08:42:12;;;;;;;27.83;22.63;;;12.60;99.90;;;;;;5066008;28;20214;-73
2023/10/26 08:44:42;;;;;;;34.50;23.52;;;12.70;99.90;;;;;;5063316;28;20231;-73
2023/10/26 08:47:12;;;;;;;24.60;21.10;;;12.70;99.90;;;;;;5060999;28;20254;-72
2023/10/26 08:49:43;;;;;;;27.77;22.55;;;12.70;99.90;;;;;;5069476;28;20207;-72
2023/10/26 08:52:10;;;;;;;33.80;22.58;;;12.80;99.90;;;;;;5065746;28;20205;-73
2023/10/26 08:54:38;;;;;;;35.53;26.00;;;12.80;99.90;;;;;;5073276;28;20203;-73
2023/10/26 08:57:07;;;;;;;30.50;22.92;;;12.80;99.90;;;;;;5068503;28;20255;-74
2023/10/26 08:59:37;;;;;;;30.85;22.42;;;12.80;99.90;;;;;;5070511;28;20654;-72
2023/10/26 09:02:04;;;;;;;32.80;25.10;;;12.80;99.90;;;;;;5072191;28;20214;-72
2023/10/26 09:04:32;;;;;;;48.42;26.08;;;12.90;99.90;;;;;;5066418;28;20290;-72
2023/10/26 09:07:00;;;;;;;29.58;22.02;;;12.80;99.90;;;;;;5071300;28;20226;-74
2023/10/26 09:09:27;;;;;;;32.47;24.50;;;12.90;99.90;;;;;;5066262;28;20234;-73
2023/10/26 09:11:55;;;;;;;33.95;23.65;;;13.00;99.90;;;;;;5063439;28;20286;-73
2023/10/26 09:14:23;;;;;;;31.63;24.90;;;13.00;99.90;;;;;;5062096;28;20638;-72
2023/10/26 09:16:52;;;;;;;31.98;23.98;;;12.90;99.90;;;;;;5067351;28;20230;-73
2023/10/26 09:19:20;;;;;;;36.38;25.25;;;12.90;99.90;;;;;;5055750;28;20204;-72
2023/10/26 09:21:51;;;;;;;28.02;22.27;;;12.90;99.90;;;;;;5063523;28;20253;-72
2023/10/26 09:24:26;;;;;;;36.13;25.35;;;13.10;99.90;;;;;;5058233;28;20212;-72
2023/10/26 09:26:59;;;;;;;35.03;25.70;;;13.10;99.90;;;;;;5065890;28;20242;-72
2023/10/26 09:29:36;;;;;;;33.80;24.90;;;13.10;99.90;;;;;;5057344;28;20567;-73
2023/10/26 09:32:04;;;;;;;32.00;24.70;;;13.10;99.90;;;;;;5058436;28;20215;-72
2023/10/26 09:34:30;;;;;;;30.40;24.65;;;13.10;99.90;;;;;;5063544;28;20585;-73
2023/10/26 09:36:58;;;;;;;27.80;24.80;;;13.20;99.90;;;;;;5059018;28;20695;-72
2023/10/26 09:39:29;;;;;;;34.53;24.27;;;13.20;99.90;;;;;;5059865;28;20654;-72
2023/10/26 09:41:57;;;;;;;30.63;24.67;;;13.30;99.90;;;;;;5059227;28;20282;-75
2023/10/26 09:44:24;;;;;;;31.80;24.63;;;13.30;99.90;;;;;;5066055;28;20670;-72
2023/10/26 09:46:52;;;;;;;26.65;21.05;;;13.40;99.90;;;;;;5063524;28;20219;-72
2023/10/26 09:49:19;;;;;;;34.30;24.25;;;13.40;99.90;;;;;;5072464;28;20199;-73
2023/10/26 09:51:46;;;;;;;26.05;20.95;;;13.40;99.90;;;;;;5070310;28;20216;-73
2023/10/26 09:54:14;;;;;;;32.63;25.40;;;13.50;99.90;;;;;;5069270;28;20286;-73
2023/10/26 09:56:48;;;;;;;31.85;23.92;;;13.50;99.90;;;;;;5066535;28;20237;-72
2023/10/26 09:59:16;;;;;;;31.02;23.05;;;13.40;99.90;;;;;;5068236;28;20233;-74
2023/10/26 10:01:45;;;;;;;28.60;20.88;;;13.40;99.90;;;;;;5067341;28;20211;-71
2023/10/26 10:04:13;;;;;;;28.95;22.13;;;13.40;99.90;;;;;;5069629;28;20645;-74
2023/10/26 10:06:51;;;;;;;27.05;20.85;;;13.40;99.90;;;;;;5071044;28;20258;-73
2023/10/26 10:09:19;;;;;;;26.70;21.00;;;13.50;99.90;;;;;;5053801;28;20235;-73
2023/10/26 10:12:31;;;;;;;24.92;19.98;;;13.60;99.90;;;;;;5067510;28;20685;-72
2023/10/26 10:15:00;;;;;;;26.70;21.27;;;13.60;99.90;;;;;;5069724;28;20668;-73
2023/10/26 10:18:03;;;;;;;28.38;21.77;;;13.60;99.90;;;;;;5069838;28;20308;-72
2023/10/26 10:20:31;;;;;;;24.13;18.77;;;13.60;99.90;;;;;;5002334;28;20710;-71
2023/10/26 10:23:01;;;;;;;26.42;20.60;;;13.60;99.90;;;;;;4999802;28;20227;-72
2023/10/26 10:25:58;;;;;;;28.60;21.50;;;13.50;99.90;;;;;;5035627;28;20199;-73
2023/10/26 10:28:48;;;;;;;27.73;21.85;;;13.60;99.90;;;;;;5059508;28;20219;-72
2023/10/26 10:31:40;;;;;;;28.63;21.90;;;13.50;99.90;;;;;;5063114;28;20207;-72
2023/10/26 10:34:10;;;;;;;28.15;19.50;;;13.60;99.90;;;;;;5066993;28;20202;-71
2023/10/26 10:37:12;;;;;;;24.30;19.15;;;13.70;99.90;;;;;;5066377;28;20631;-71
2023/10/26 10:40:00;;;;;;;22.67;18.63;;;13.80;99.90;;;;;;5061140;28;20244;-72
2023/10/26 10:42:27;;;;;;;24.60;20.02;;;13.90;99.90;;;;;;5062966;28;20199;-72
2023/10/26 10:44:57;;;;;;;23.73;18.73;;;14.00;99.90;;;;;;5065349;28;20233;-72
2023/10/26 10:47:28;;;;;;;26.63;21.15;;;14.00;99.90;;;;;;5065587;28;20287;-72
2023/10/26 10:50:17;;;;;;;25.80;20.85;;;14.20;99.90;;;;;;5065497;28;20202;-73
2023/10/26 10:52:44;;;;;;;23.50;18.42;;;14.20;99.90;;;;;;5067866;28;20740;-72
2023/10/26 10:55:11;;;;;;;22.10;19.70;;;14.30;99.90;;;;;;5070576;28;20222;-73
2023/10/26 10:57:52;;;;;;;24.40;19.02;;;14.40;99.90;;;;;;5065317;28;20249;-72
2023/10/26 11:00:21;;;;;;;22.88;18.30;;;14.50;99.90;;;;;;5062532;28;20199;-72
2023/10/26 11:02:49;;;;;;;24.52;19.58;;;14.40;99.90;;;;;;5067108;28;20234;-71
2023/10/26 11:05:17;;;;;;;22.85;18.63;;;14.40;99.90;;;;;;5070254;28;20209;-73
2023/10/26 11:07:44;;;;;;;23.33;18.25;;;14.50;99.90;;;;;;5068033;28;20219;-72
2023/10/26 11:10:11;;;;;;;23.33;18.20;;;14.40;99.90;;;;;;5067411;28;20256;-73
2023/10/26 11:12:38;;;;;;;22.77;19.60;;;14.40;99.90;;;;;;5065766;28;20199;-72
2023/10/26 11:15:07;;;;;;;22.05;18.45;;;14.50;99.90;;;;;;5065350;28;20242;-72
2023/10/26 11:17:39;;;;;;;26.38;21.33;;;14.50;99.90;;;;;;5069040;28;20230;-70
2023/10/26 11:20:27;;;;;;;24.77;18.55;;;14.60;99.90;;;;;;5068073;28;20203;-72
2023/10/26 11:22:57;;;;;;;23.50;18.65;;;14.60;99.90;;;;;;5061758;28;20204;-72
2023/10/26 11:25:27;;;;;;;21.35;17.45;;;14.60;99.90;;;;;;5068908;28;20706;-73
2023/10/26 11:27:54;;;;;;;23.42;18.83;;;14.50;99.90;;;;;;5064498;28;20216;-74
2023/10/26 11:30:21;;;;;;;22.95;19.63;;;14.40;99.90;;;;;;5069596;28;20286;-71
2023/10/26 11:32:49;;;;;;;17.92;15.77;;;14.40;99.90;;;;;;5066779;28;20302;-72
2023/10/26 11:35:17;;;;;;;23.80;18.33;;;14.30;99.90;;;;;;5064291;28;20217;-72
2023/10/26 11:37:45;;;;;;;23.52;18.15;;;14.30;99.90;;;;;;5069959;28;20261;-72
2023/10/26 11:40:14;;;;;;;23.20;18.92;;;14.30;99.90;;;;;;5064694;28;20702;-73
2023/10/26 11:42:52;;;;;;;18.30;15.50;;;14.30;99.90;;;;;;5070206;28;20749;-70
2023/10/26 11:45:20;;;;;;;23.50;17.95;;;14.20;99.90;;;;;;5067363;28;20340;-70
2023/10/26 11:47:52;;;;;;;23.10;19.58;;;14.20;99.90;;;;;;5073555;28;20276;-73
2023/10/26 11:50:23;;;;;;;24.17;17.40;;;14.30;99.90;;;;;;5067942;28;20242;-72
2023/10/26 11:52:51;;;;;;;20.30;17.20;;;14.30;99.90;;;;;;5072450;28;20207;-71
2023/10/26 11:55:20;;;;;;;19.40;16.23;;;14.40;99.90;;;;;;5072268;28;20235;-72
2023/10/26 11:57:47;;;;;;;23.35;18.35;;;14.50;99.90;;;;;;5071552;28;20237;-72
2023/10/26 12:00:15;;;;;;;24.88;20.08;;;14.50;99.90;;;;;;5071412;28;20769;-73
2023/10/26 12:02:42;;;;;;;22.20;16.17;;;14.60;99.90;;;;;;5056587;28;20203;-72
2023/10/26 12:05:15;;;;;;;21.48;17.33;;;14.70;99.90;;;;;;5070655;28;20223;-72
2023/10/26 12:07:42;;;;;;;22.50;18.23;;;14.70;99.90;;;;;;5064864;28;20221;-73
2023/10/26 12:10:10;;;;;;;21.40;15.65;;;14.80;99.90;;;;;;5068454;28;20656;-72
2023/10/26 12:12:37;;;;;;;20.23;17.90;;;14.90;99.90;;;;;;5066084;28;20391;-72
2023/10/26 12:15:05;;;;;;;22.63;17.23;;;14.90;99.90;;;;;;5068430;28;20694;-73
2023/10/26 12:17:32;;;;;;;20.92;16.73;;;15.00;99.90;;;;;;5071342;28;20229;-73
2023/10/26 12:19:59;;;;;;;22.73;16.60;;;15.10;99.90;;;;;;5065349;28;20296;-73
2023/10/26 12:22:27;;;;;;;20.35;16.50;;;15.00;99.90;;;;;;5064794;28;20227;-72
2023/10/26 12:24:54;;;;;;;20.73;15.38;;;15.10;99.90;;;;;;5064887;28;20306;-72
2023/10/26 12:27:21;;;;;;;21.85;17.13;;;15.10;99.90;;;;;;5073850;28;20590;-72
2023/10/26 12:29:49;;;;;;;21.48;15.57;;;15.10;99.90;;;;;;5071084;28;20302;-72
2023/10/26 12:32:16;;;;;;;27.92;20.52;;;15.10;99.90;;;;;;5062661;28;20316;-72
2023/10/26 12:34:43;;;;;;;28.88;21.77;;;15.10;99.90;;;;;;5068828;28;20215;-71